Time;durP1;ratioP1;P1;durP2;ratioP2;P2;SDS_P1;SDS_P2;PMS_P1;PMS_P2;Temp;Humidity;BMP_temperature;BMP_pressure;BME280_temperature;BME280_humidity;BME280_pressure;Samples;Min_cycle;Max_cycle;Signal;HPM_P1;HPM_P2
2024/03/13 00:01:02;;;;;;;11.40;6.95;;;10.10;99.90;;;;;;5073601;28;20134;-54
2024/03/13 00:03:28;;;;;;;14.90;8.38;;;10.10;99.90;;;;;;5073339;28;20591;-52
2024/03/13 00:05:55;;;;;;;16.30;8.02;;;10.00;99.90;;;;;;5073492;28;20051;-53
2024/03/13 00:08:22;;;;;;;11.95;6.72;;;10.00;99.90;;;;;;5073304;28;20484;-53
2024/03/13 00:10:50;;;;;;;14.88;6.82;;;10.00;99.90;;;;;;5072806;28;20070;-53
2024/03/13 00:13:16;;;;;;;12.27;7.25;;;10.00;99.90;;;;;;5073488;28;20542;-52
2024/03/13 00:15:42;;;;;;;10.73;6.30;;;10.00;99.90;;;;;;5073216;28;20481;-53
2024/03/13 00:18:08;;;;;;;14.27;7.07;;;10.10;99.90;;;;;;5073217;28;20021;-53
2024/03/13 00:20:34;;;;;;;11.65;6.80;;;10.10;99.90;;;;;;5072122;28;20023;-53
2024/03/13 00:23:01;;;;;;;15.32;6.78;;;10.10;99.90;;;;;;5073231;28;20385;-53
2024/03/13 00:25:30;;;;;;;13.10;7.10;;;10.20;99.90;;;;;;5058689;28;20032;-53
2024/03/13 00:27:55;;;;;;;13.05;6.30;;;10.20;99.90;;;;;;5073151;28;20485;-53
2024/03/13 00:30:22;;;;;;;12.70;6.53;;;10.20;99.90;;;;;;5072899;28;20061;-52
2024/03/13 00:32:53;;;;;;;9.65;5.32;;;10.20;99.90;;;;;;5071625;28;20082;-53
2024/03/13 00:35:22;;;;;;;10.43;5.95;;;10.20;99.90;;;;;;5071666;28;20024;-53
2024/03/13 00:37:49;;;;;;;10.60;5.45;;;10.20;99.90;;;;;;5072726;28;20485;-53
2024/03/13 00:40:15;;;;;;;13.10;6.57;;;10.20;99.90;;;;;;5073055;28;20406;-54
2024/03/13 00:42:44;;;;;;;12.25;6.72;;;10.20;99.90;;;;;;5071311;28;20392;-53
2024/03/13 00:45:13;;;;;;;18.77;7.32;;;10.30;99.90;;;;;;5072687;28;20027;-53
2024/03/13 00:47:39;;;;;;;22.10;7.63;;;10.30;99.90;;;;;;5070548;28;20024;-53
2024/03/13 00:50:09;;;;;;;18.98;7.82;;;10.30;99.90;;;;;;5072520;28;20083;-58
2024/03/13 00:52:36;;;;;;;16.13;7.18;;;10.30;99.90;;;;;;5072496;28;20024;-53
2024/03/13 00:55:03;;;;;;;24.90;7.85;;;10.30;99.90;;;;;;5072383;28;20020;-53
2024/03/13 00:57:28;;;;;;;25.45;7.60;;;10.30;99.90;;;;;;5072433;28;20021;-54
2024/03/13 00:59:54;;;;;;;19.45;7.88;;;10.40;99.90;;;;;;5072373;28;20157;-52
2024/03/13 01:02:22;;;;;;;15.45;6.75;;;10.40;99.90;;;;;;5072491;28;20021;-54
2024/03/13 01:04:48;;;;;;;17.65;8.43;;;10.40;99.90;;;;;;5072445;28;20035;-58
2024/03/13 01:07:14;;;;;;;19.73;8.05;;;10.50;99.90;;;;;;5072705;28;20021;-53
2024/03/13 01:09:40;;;;;;;27.67;9.20;;;10.50;99.90;;;;;;5072278;28;20041;-53
2024/03/13 01:12:07;;;;;;;41.05;8.80;;;10.50;99.90;;;;;;5072454;28;20040;-52
2024/03/13 01:14:32;;;;;;;22.15;8.90;;;10.60;99.90;;;;;;5071374;28;20369;-49
2024/03/13 01:17:00;;;;;;;25.00;8.73;;;10.50;99.90;;;;;;5072323;28;20028;-56
2024/03/13 01:19:30;;;;;;;32.08;11.13;;;10.60;99.90;;;;;;5072314;28;20013;-53
2024/03/13 01:22:03;;;;;;;20.60;8.23;;;10.60;99.90;;;;;;5072297;28;20057;-52
2024/03/13 01:24:29;;;;;;;33.22;10.10;;;10.60;99.90;;;;;;5072213;28;20028;-52
2024/03/13 01:26:55;;;;;;;39.70;9.95;;;10.60;99.90;;;;;;5070933;28;20086;-51
2024/03/13 01:29:21;;;;;;;33.95;8.57;;;10.60;99.90;;;;;;5072305;28;20029;-53
2024/03/13 01:31:47;;;;;;;34.85;10.18;;;10.60;99.90;;;;;;5072141;28;20393;-51
2024/03/13 01:34:13;;;;;;;39.38;11.30;;;10.70;99.90;;;;;;5071957;28;20024;-50
2024/03/13 01:39:24;;;;;;;43.15;12.27;;;10.70;99.90;;;;;;5072249;28;20517;-53
2024/03/13 01:55:44;;;;;;;41.42;12.15;;;10.90;99.90;;;;;;5071912;28;20035;-53
2024/03/13 01:58:19;;;;;;;43.65;10.43;;;10.90;99.90;;;;;;5070549;28;20031;-53
2024/03/13 02:03:31;;;;;;;46.42;11.38;;;11.00;99.90;;;;;;5055661;28;20102;-53
2024/03/13 02:05:57;;;;;;;45.33;10.32;;;11.00;99.90;;;;;;5055450;28;20037;-48
2024/03/13 02:08:24;;;;;;;59.55;13.98;;;11.10;99.90;;;;;;5064912;28;20370;-54
2024/03/13 02:10:49;;;;;;;36.22;10.15;;;11.10;99.90;;;;;;5075478;28;20063;-54
2024/03/13 02:13:24;;;;;;;61.25;12.75;;;11.20;99.90;;;;;;5075611;28;20026;-54
2024/03/13 02:15:50;;;;;;;41.83;11.05;;;11.20;99.90;;;;;;5075669;28;20027;-51
2024/03/13 02:18:23;;;;;;;31.45;9.45;;;11.20;99.90;;;;;;5075368;28;20393;-52
2024/03/13 02:20:52;;;;;;;61.42;13.27;;;11.20;99.90;;;;;;5075799;28;20388;-54
2024/03/13 02:23:23;;;;;;;47.47;11.43;;;11.20;99.90;;;;;;5075785;28;20040;-54
2024/03/13 02:25:53;;;;;;;50.13;10.60;;;11.20;99.90;;;;;;5075547;28;20550;-51
2024/03/13 02:28:39;;;;;;;37.25;10.25;;;11.20;99.90;;;;;;5075280;28;20047;-51
2024/03/13 02:31:08;;;;;;;26.92;8.82;;;11.20;99.90;;;;;;5075173;28;20517;-54
2024/03/13 02:33:34;;;;;;;28.08;9.88;;;11.30;99.90;;;;;;5075524;28;20472;-51
2024/03/13 02:36:01;;;;;;;28.45;9.98;;;11.30;99.90;;;;;;5073186;28;20477;-49
2024/03/13 02:38:28;;;;;;;23.10;9.10;;;11.30;99.90;;;;;;5075311;28;20063;-51
2024/03/13 02:40:54;;;;;;;29.48;8.88;;;11.30;99.90;;;;;;5075441;28;20129;-51
2024/03/13 02:43:20;;;;;;;25.38;10.57;;;11.30;99.90;;;;;;5074907;28;20063;-54
2024/03/13 02:45:46;;;;;;;27.13;9.27;;;11.30;99.90;;;;;;5075150;28;20439;-51
2024/03/13 02:48:12;;;;;;;18.88;9.02;;;11.30;99.90;;;;;;5075032;28;20029;-39
2024/03/13 02:50:41;;;;;;;25.92;8.90;;;11.30;99.90;;;;;;5074686;28;20060;-40
2024/03/13 02:53:10;;;;;;;21.45;9.50;;;11.30;99.90;;;;;;5074897;28;20485;-41
2024/03/13 02:55:36;;;;;;;23.75;9.48;;;11.30;99.90;;;;;;5074790;28;20496;-39
2024/03/13 02:58:02;;;;;;;24.08;9.40;;;11.30;99.90;;;;;;5074821;28;20429;-42
2024/03/13 03:00:28;;;;;;;19.85;8.65;;;11.30;99.90;;;;;;5074977;28;20028;-39
2024/03/13 03:02:54;;;;;;;26.30;9.70;;;11.30;99.90;;;;;;5074725;28;20028;-39
2024/03/13 03:05:21;;;;;;;20.45;9.25;;;11.30;99.90;;;;;;5074825;28;20031;-40
2024/03/13 03:07:46;;;;;;;18.45;8.80;;;11.30;99.90;;;;;;5074486;28;20055;-40
2024/03/13 03:10:12;;;;;;;24.40;10.57;;;11.30;99.90;;;;;;5073852;28;20041;-41
2024/03/13 03:12:40;;;;;;;23.58;10.20;;;11.40;99.90;;;;;;5073837;28;20021;-39
2024/03/13 03:15:06;;;;;;;18.40;9.32;;;11.40;99.90;;;;;;5074471;28;20035;-39
2024/03/13 03:17:32;;;;;;;21.25;8.98;;;11.40;99.90;;;;;;5074105;28;20082;-41
2024/03/13 03:19:58;;;;;;;19.90;9.48;;;11.40;99.90;;;;;;5073979;28;20024;-43
2024/03/13 03:22:24;;;;;;;21.60;9.15;;;11.40;99.90;;;;;;5074003;28;20111;-40
2024/03/13 03:24:50;;;;;;;15.23;8.38;;;11.40;99.90;;;;;;5073110;28;20040;-40
2024/03/13 03:27:16;;;;;;;19.10;9.05;;;11.40;99.90;;;;;;5074125;28;20037;-39
2024/03/13 03:29:42;;;;;;;21.88;8.80;;;11.40;99.90;;;;;;5074294;28;20101;-41
2024/03/13 03:32:08;;;;;;;20.25;9.02;;;11.40;99.90;;;;;;5074078;28;20093;-40
2024/03/13 03:34:39;;;;;;;19.73;8.77;;;11.30;99.90;;;;;;5073921;28;20094;-42
2024/03/13 03:37:05;;;;;;;24.42;8.05;;;11.40;99.90;;;;;;5072541;28;20020;-39
2024/03/13 03:39:35;;;;;;;23.15;8.30;;;11.40;99.90;;;;;;5073843;28;20119;-39
2024/03/13 03:42:03;;;;;;;21.98;7.88;;;11.40;99.90;;;;;;5072840;28;20031;-39
2024/03/13 03:44:29;;;;;;;;;;;11.40;99.90;;;;;;5073434;28;20052;-39
2024/03/13 03:46:59;;;;;;;23.55;8.80;;;11.40;99.90;;;;;;5073915;28;19912;-39
2024/03/13 03:49:27;;;;;;;20.40;8.88;;;11.40;99.90;;;;;;5073663;28;20036;-42
2024/03/13 03:51:53;;;;;;;21.52;9.07;;;11.40;99.90;;;;;;5057711;28;20451;-41
2024/03/13 03:54:21;;;;;;;23.20;9.68;;;11.40;99.90;;;;;;5053896;28;20108;-41
2024/03/13 03:56:48;;;;;;;24.27;8.30;;;11.40;99.90;;;;;;5069426;28;20024;-39
2024/03/13 03:59:14;;;;;;;28.50;8.68;;;11.40;99.90;;;;;;5072504;28;20021;-39
2024/03/13 04:01:41;;;;;;;18.02;7.45;;;11.40;99.90;;;;;;5073895;28;20028;-39
2024/03/13 04:04:07;;;;;;;21.27;8.93;;;11.40;99.90;;;;;;5071694;28;20107;-61
2024/03/13 04:06:33;;;;;;;20.33;7.72;;;11.50;99.90;;;;;;5073376;28;20063;-39
2024/03/13 04:09:00;;;;;;;22.13;8.77;;;11.50;99.90;;;;;;5071845;28;20123;-38
2024/03/13 04:11:27;;;;;;;17.02;8.98;;;11.50;99.90;;;;;;5073354;28;20456;-39
2024/03/13 04:13:52;;;;;;;23.90;8.82;;;11.40;99.90;;;;;;5073307;28;20016;-39
2024/03/13 04:16:19;;;;;;;27.85;9.82;;;11.40;99.90;;;;;;5073375;28;20434;-38
2024/03/13 04:18:46;;;;;;;17.02;8.60;;;11.40;99.90;;;;;;5071792;28;20513;-39
2024/03/13 04:21:14;;;;;;;25.25;8.50;;;11.40;99.90;;;;;;5073081;28;20033;-39
2024/03/13 04:23:45;;;;;;;17.50;8.60;;;11.40;99.90;;;;;;5062944;28;20507;-38
2024/03/13 04:26:12;;;;;;;23.33;8.38;;;11.40;99.90;;;;;;5073140;28;20100;-43
2024/03/13 04:28:42;;;;;;;20.70;8.52;;;11.40;99.90;;;;;;5072657;28;20035;-39
2024/03/13 04:31:09;;;;;;;25.02;8.55;;;11.40;99.90;;;;;;5073248;28;20484;-39
2024/03/13 04:33:36;;;;;;;21.58;8.85;;;11.40;99.90;;;;;;5065705;28;20025;-39
2024/03/13 04:36:02;;;;;;;23.65;8.43;;;11.40;99.90;;;;;;5072933;28;20212;-43
2024/03/13 04:38:28;;;;;;;21.50;9.18;;;11.40;99.90;;;;;;5073247;28;20477;-38
2024/03/13 04:40:54;;;;;;;23.77;8.95;;;11.50;99.90;;;;;;5072670;28;20107;-38
2024/03/13 04:43:19;;;;;;;30.00;9.63;;;11.40;99.90;;;;;;5072548;28;20039;-37
2024/03/13 04:45:45;;;;;;;19.42;9.75;;;11.40;99.90;;;;;;5072880;28;20068;-39
2024/03/13 04:48:11;;;;;;;38.65;9.65;;;11.40;99.90;;;;;;5072800;28;20542;-38
2024/03/13 04:50:38;;;;;;;19.42;9.60;;;11.40;99.90;;;;;;5070788;28;20107;-36
2024/03/13 04:53:04;;;;;;;28.08;9.45;;;11.50;99.90;;;;;;5072478;28;20074;-39
2024/03/13 04:55:30;;;;;;;24.40;9.40;;;11.50;99.90;;;;;;5072660;28;20042;-40
2024/03/13 04:57:59;;;;;;;33.47;10.10;;;11.40;99.90;;;;;;5072508;28;20016;-38
2024/03/13 05:00:25;;;;;;;25.45;8.98;;;11.50;99.90;;;;;;5071993;28;20082;-38
2024/03/13 05:02:51;;;;;;;33.83;10.90;;;11.40;99.90;;;;;;5073008;28;20469;-38
2024/03/13 05:05:17;;;;;;;22.63;9.65;;;11.50;99.90;;;;;;5071852;28;20481;-67
2024/03/13 05:07:43;;;;;;;24.52;10.00;;;11.40;99.90;;;;;;5072838;28;20030;-61
2024/03/13 05:10:09;;;;;;;35.10;11.60;;;11.40;99.90;;;;;;5071927;28;20044;-37
2024/03/13 05:12:38;;;;;;;27.45;9.77;;;11.30;99.90;;;;;;5072431;28;20544;-38
2024/03/13 05:15:05;;;;;;;25.88;9.65;;;11.30;99.90;;;;;;5072258;28;20453;-38
2024/03/13 05:17:31;;;;;;;19.00;7.93;;;11.30;99.90;;;;;;5072390;28;20032;-44
2024/03/13 05:19:58;;;;;;;24.15;8.77;;;11.30;99.90;;;;;;5061969;28;20025;-37
2024/03/13 05:22:29;;;;;;;19.23;9.07;;;11.30;99.90;;;;;;5052513;28;20117;-37
2024/03/13 05:24:55;;;;;;;21.80;9.45;;;11.30;99.90;;;;;;5060161;28;20025;-38
2024/03/13 05:27:21;;;;;;;32.13;9.75;;;11.30;99.90;;;;;;5072526;28;20477;-40
2024/03/13 05:29:47;;;;;;;22.55;8.30;;;11.20;99.90;;;;;;5054487;28;20470;-40
2024/03/13 05:32:12;;;;;;;30.55;8.27;;;11.30;99.90;;;;;;5059797;28;20085;-39
2024/03/13 05:34:38;;;;;;;19.40;9.25;;;11.20;99.90;;;;;;5069848;28;20013;-37
2024/03/13 05:37:04;;;;;;;28.73;8.85;;;11.20;99.90;;;;;;5072158;28;20024;-49
2024/03/13 05:39:30;;;;;;;22.85;7.68;;;11.20;99.90;;;;;;5072161;28;20027;-51
2024/03/13 05:41:55;;;;;;;24.95;8.25;;;11.20;99.90;;;;;;5072100;28;20500;-53
2024/03/13 05:44:21;;;;;;;20.60;8.15;;;11.20;99.90;;;;;;5072070;28;20033;-50
2024/03/13 05:46:48;;;;;;;27.92;8.95;;;11.30;99.90;;;;;;5072112;28;20031;-52
2024/03/13 05:49:17;;;;;;;25.73;8.38;;;11.30;99.90;;;;;;5071288;28;20468;-52
2024/03/13 05:51:43;;;;;;;21.67;8.85;;;11.30;99.90;;;;;;5070730;28;20047;-51
2024/03/13 05:54:09;;;;;;;28.17;8.40;;;11.20;99.90;;;;;;5070650;28;20519;-48
2024/03/13 05:56:34;;;;;;;29.73;9.63;;;11.20;99.90;;;;;;5071176;28;20024;-49
2024/03/13 05:59:00;;;;;;;20.42;7.40;;;11.20;99.90;;;;;;5071945;28;20032;-51
2024/03/13 06:01:28;;;;;;;17.63;7.68;;;11.20;99.90;;;;;;5071972;28;20027;-64
2024/03/13 06:03:54;;;;;;;;;;;11.20;99.90;;;;;;5054481;28;20409;-52
2024/03/13 06:06:23;;;;;;;16.83;7.00;;;11.20;99.90;;;;;;5060413;28;19908;-53
2024/03/13 06:08:49;;;;;;;21.05;6.90;;;11.30;99.90;;;;;;5071676;28;20116;-52
2024/03/13 06:11:17;;;;;;;19.75;6.90;;;11.30;99.90;;;;;;5070438;28;20111;-53
2024/03/13 06:13:42;;;;;;;24.58;7.10;;;11.20;99.90;;;;;;5071516;28;20021;-51
2024/03/13 06:16:09;;;;;;;26.23;6.82;;;11.20;99.90;;;;;;5071860;28;20032;-52
2024/03/13 06:18:35;;;;;;;18.48;6.35;;;11.20;99.90;;;;;;5071776;28;20019;-53
2024/03/13 06:21:03;;;;;;;24.08;6.25;;;11.20;99.90;;;;;;5056152;28;20040;-51
2024/03/13 06:23:28;;;;;;;20.60;6.13;;;11.20;99.90;;;;;;5066696;28;20036;-48
2024/03/13 06:25:57;;;;;;;27.42;6.30;;;11.30;99.90;;;;;;5071723;28;20029;-47
2024/03/13 06:31:07;;;;;;;25.35;5.85;;;11.30;99.90;;;;;;5071019;28;20039;-52
2024/03/13 06:33:33;;;;;;;16.58;5.35;;;11.30;99.90;;;;;;5071894;28;20384;-48
2024/03/13 06:35:59;;;;;;;24.90;4.47;;;11.30;99.90;;;;;;5071099;28;20028;-52
2024/03/13 06:38:24;;;;;;;22.17;3.90;;;11.30;99.90;;;;;;5070017;28;20017;-51
2024/03/13 06:40:50;;;;;;;11.93;4.75;;;11.30;99.90;;;;;;5071271;28;20488;-51
2024/03/13 06:43:16;;;;;;;17.17;5.07;;;11.30;99.90;;;;;;5071495;28;20078;-53
2024/03/13 06:45:45;;;;;;;21.30;4.38;;;11.30;99.90;;;;;;5071568;28;20032;-49
2024/03/13 06:48:12;;;;;;;18.65;4.75;;;11.30;99.90;;;;;;5072695;28;20036;-52
2024/03/13 06:50:38;;;;;;;17.75;4.38;;;11.30;99.90;;;;;;5072392;28;20473;-52
2024/03/13 06:53:04;;;;;;;18.80;4.75;;;11.30;99.90;;;;;;5074890;28;20108;-51
2024/03/13 06:55:30;;;;;;;14.77;4.50;;;11.30;99.90;;;;;;5073522;28;20078;-49
2024/03/13 06:57:56;;;;;;;13.23;4.13;;;11.40;99.90;;;;;;5074731;28;20094;-51
2024/03/13 07:00:21;;;;;;;14.73;4.97;;;11.30;99.90;;;;;;5075025;28;20040;-50
2024/03/13 07:02:48;;;;;;;12.70;4.55;;;11.30;99.90;;;;;;5074808;28;20021;-52
2024/03/13 07:05:17;;;;;;;18.17;5.18;;;11.40;99.90;;;;;;5074709;28;20032;-62
2024/03/13 07:07:44;;;;;;;18.73;4.55;;;11.30;99.90;;;;;;5074404;28;20032;-50
2024/03/13 07:10:10;;;;;;;18.10;4.03;;;11.40;99.90;;;;;;5072806;28;20091;-48
2024/03/13 07:12:39;;;;;;;17.90;4.15;;;11.40;99.90;;;;;;5074818;28;20044;-52
2024/03/13 07:15:09;;;;;;;14.88;4.15;;;11.30;99.90;;;;;;5074225;28;20024;-52
2024/03/13 07:17:38;;;;;;;13.63;4.57;;;11.40;99.90;;;;;;5074525;28;20032;-51
2024/03/13 07:20:04;;;;;;;11.85;3.38;;;11.40;99.90;;;;;;5074438;28;20045;-50
2024/03/13 07:22:30;;;;;;;19.77;4.68;;;11.40;99.90;;;;;;5074255;28;20025;-49
2024/03/13 07:24:56;;;;;;;15.02;4.65;;;11.40;99.90;;;;;;5074404;28;20029;-52
2024/03/13 07:27:21;;;;;;;16.92;4.45;;;11.40;99.90;;;;;;5074564;28;20032;-52
2024/03/13 07:29:49;;;;;;;17.33;3.92;;;11.40;99.90;;;;;;5074389;28;20033;-53
2024/03/13 07:32:16;;;;;;;12.07;3.72;;;11.40;99.90;;;;;;5074024;28;20029;-48
2024/03/13 07:34:42;;;;;;;14.95;4.78;;;11.30;99.90;;;;;;5074186;28;20473;-50
2024/03/13 07:37:10;;;;;;;13.48;4.13;;;11.30;99.90;;;;;;5074071;28;20021;-50
2024/03/13 07:39:36;;;;;;;14.85;4.47;;;11.40;99.90;;;;;;5074236;28;20074;-52
2024/03/13 07:42:02;;;;;;;18.90;3.75;;;11.40;99.90;;;;;;5065396;28;20442;-51
2024/03/13 07:44:30;;;;;;;12.80;3.92;;;11.40;99.90;;;;;;5053981;28;20021;-47
2024/03/13 07:46:56;;;;;;;10.05;4.05;;;11.50;99.90;;;;;;5053856;28;20029;-53
2024/03/13 07:49:21;;;;;;;16.23;5.03;;;11.50;99.90;;;;;;5066481;28;20067;-53
2024/03/13 07:51:47;;;;;;;15.95;4.13;;;11.50;99.90;;;;;;5053849;28;20029;-50
2024/03/13 07:54:13;;;;;;;20.23;4.47;;;11.50;99.90;;;;;;5053845;28;20478;-50
2024/03/13 07:56:39;;;;;;;21.85;5.88;;;11.50;99.90;;;;;;5053194;28;20029;-50
2024/03/13 07:59:07;;;;;;;27.05;5.30;;;11.50;99.90;;;;;;5052965;28;20079;-51
2024/03/13 08:01:40;;;;;;;15.05;4.30;;;11.50;99.90;;;;;;5052351;28;20036;-51
2024/03/13 08:04:07;;;;;;;15.15;4.43;;;11.60;99.90;;;;;;5053609;28;20075;-45
2024/03/13 08:06:36;;;;;;;20.50;4.38;;;11.60;99.90;;;;;;5072367;28;20401;-52
2024/03/13 08:09:02;;;;;;;19.50;4.55;;;11.60;99.90;;;;;;5073723;28;20036;-62
2024/03/13 08:11:31;;;;;;;28.67;4.93;;;11.60;99.90;;;;;;5073321;28;20182;-51
2024/03/13 08:13:58;;;;;;;16.35;5.00;;;11.50;99.90;;;;;;5073309;28;20032;-47
2024/03/13 08:16:23;;;;;;;17.63;4.90;;;11.50;99.90;;;;;;5073170;28;20021;-51
2024/03/13 08:18:49;;;;;;;16.80;5.70;;;11.50;99.90;;;;;;5073271;28;20050;-50
2024/03/13 08:21:16;;;;;;;23.25;6.57;;;11.50;99.90;;;;;;5073500;28;20032;-53
2024/03/13 08:23:44;;;;;;;13.93;5.95;;;11.60;99.90;;;;;;5072997;28;20028;-52
2024/03/13 08:26:11;;;;;;;25.88;5.85;;;11.60;99.90;;;;;;5073396;28;20515;-53
2024/03/13 08:28:37;;;;;;;21.65;5.70;;;11.60;99.90;;;;;;5073207;28;20028;-51
2024/03/13 08:31:05;;;;;;;25.90;6.00;;;11.60;99.90;;;;;;5073333;28;20518;-53
2024/03/13 08:33:34;;;;;;;18.00;5.95;;;11.60;99.90;;;;;;5072879;28;20025;-51
2024/03/13 08:36:04;;;;;;;22.48;6.65;;;11.70;99.90;;;;;;5073020;28;20392;-51
2024/03/13 08:38:32;;;;;;;25.77;7.55;;;11.70;99.90;;;;;;5072794;28;20034;-50
2024/03/13 08:40:58;;;;;;;;;;;11.70;99.90;;;;;;5073597;28;20473;-53
2024/03/13 08:43:24;;;;;;;33.53;8.30;;;11.70;99.90;;;;;;5072714;28;20152;-50
2024/03/13 08:45:50;;;;;;;14.02;6.68;;;11.70;99.90;;;;;;5072960;28;20028;-49
2024/03/13 08:48:16;;;;;;;29.77;6.38;;;11.70;99.90;;;;;;5071488;28;20032;-53
2024/03/13 08:50:42;;;;;;;27.70;7.63;;;11.70;99.90;;;;;;5072549;28;20505;-55
2024/03/13 08:53:07;;;;;;;32.40;7.72;;;11.70;99.90;;;;;;5072811;28;20377;-48
2024/03/13 08:55:34;;;;;;;18.67;6.75;;;11.80;99.90;;;;;;5072506;28;20500;-53
2024/03/13 08:58:02;;;;;;;24.42;7.32;;;11.80;99.90;;;;;;5068737;28;20021;-51
2024/03/13 09:00:28;;;;;;;20.95;5.95;;;11.90;99.90;;;;;;5067186;28;20794;-52
2024/03/13 09:02:56;;;;;;;25.48;7.55;;;11.90;99.90;;;;;;5072430;28;20142;-54
2024/03/13 09:05:22;;;;;;;19.60;6.97;;;11.90;99.90;;;;;;5070874;28;20037;-51
2024/03/13 09:07:48;;;;;;;25.35;6.30;;;11.90;99.90;;;;;;5072333;28;20404;-50
2024/03/13 09:10:16;;;;;;;17.40;6.18;;;12.00;99.90;;;;;;5070235;28;20045;-54
2024/03/13 09:12:42;;;;;;;14.32;6.20;;;12.00;99.90;;;;;;5072474;28;20469;-52
2024/03/13 09:15:11;;;;;;;16.02;5.32;;;12.10;99.90;;;;;;5072522;28;20036;-54
2024/03/13 09:17:40;;;;;;;24.13;5.80;;;12.10;99.90;;;;;;5071709;28;20542;-52
2024/03/13 09:20:06;;;;;;;14.35;4.20;;;12.10;99.90;;;;;;5070654;28;20094;-50
2024/03/13 09:22:32;;;;;;;19.52;4.60;;;12.10;99.90;;;;;;5071781;28;20029;-54
2024/03/13 09:24:58;;;;;;;15.40;4.45;;;12.10;99.90;;;;;;5072206;28;20493;-51
2024/03/13 09:27:24;;;;;;;12.57;4.30;;;12.20;99.90;;;;;;5072142;28;20028;-52
2024/03/13 09:29:50;;;;;;;14.30;4.00;;;12.20;99.90;;;;;;5072383;28;20077;-50
2024/03/13 09:32:16;;;;;;;17.63;4.03;;;12.10;99.90;;;;;;5071143;28;20465;-53
2024/03/13 09:34:41;;;;;;;19.00;4.60;;;12.10;99.90;;;;;;5072166;28;20035;-51
2024/03/13 09:37:07;;;;;;;25.38;3.90;;;12.10;99.90;;;;;;5072197;28;20078;-53
2024/03/13 09:39:37;;;;;;;13.48;3.42;;;12.10;99.90;;;;;;5070835;28;20029;-53
2024/03/13 09:42:15;;;;;;;17.40;3.78;;;12.20;99.90;;;;;;5063419;28;20056;-54
2024/03/13 09:44:41;;;;;;;;;;;12.20;99.90;;;;;;5069872;28;20481;-55
2024/03/13 09:47:08;;;;;;;15.73;3.10;;;12.10;99.90;;;;;;5071786;28;19931;-53
2024/03/13 09:49:35;;;;;;;11.32;2.85;;;12.20;99.90;;;;;;5071969;28;20057;-39
2024/03/13 09:52:03;;;;;;;12.68;3.63;;;12.20;99.90;;;;;;5070712;28;20052;-38
2024/03/13 09:54:29;;;;;;;13.27;3.38;;;12.20;99.90;;;;;;5072198;28;20029;-41
2024/03/13 09:56:55;;;;;;;15.35;3.03;;;12.10;99.90;;;;;;5072184;28;20385;-38
2024/03/13 09:59:21;;;;;;;11.98;3.67;;;12.00;99.90;;;;;;5071184;28;20024;-39
2024/03/13 10:01:49;;;;;;;11.77;3.05;;;12.10;99.90;;;;;;5071360;28;20024;-40
2024/03/13 10:04:24;;;;;;;9.50;3.50;;;12.10;99.90;;;;;;5071517;28;20472;-38
2024/03/13 10:06:56;;;;;;;8.23;3.45;;;12.10;99.90;;;;;;5070039;28;20485;-38
2024/03/13 10:09:28;;;;;;;12.65;3.65;;;12.20;99.90;;;;;;5071064;28;20036;-38
2024/03/13 10:11:56;;;;;;;17.92;3.47;;;12.20;99.90;;;;;;5070889;28;20029;-38
2024/03/13 10:14:23;;;;;;;12.27;3.05;;;12.30;99.90;;;;;;5071810;28;20485;-39
2024/03/13 10:17:01;;;;;;;10.82;3.30;;;12.30;99.90;;;;;;5071634;28;20060;-38
2024/03/13 10:19:28;;;;;;;11.70;4.18;;;12.30;99.90;;;;;;5071371;28;20530;-39
2024/03/13 10:21:54;;;;;;;17.48;4.85;;;12.40;99.90;;;;;;5075195;28;20090;-38
2024/03/13 10:24:22;;;;;;;12.90;3.75;;;12.50;99.90;;;;;;5075250;28;20431;-39
2024/03/13 10:26:48;;;;;;;;;;;12.50;99.90;;;;;;5075827;28;20027;-43
2024/03/13 10:29:15;;;;;;;11.90;3.70;;;12.60;99.90;;;;;;5075164;28;19939;-42
2024/03/13 10:31:42;;;;;;;26.83;5.60;;;12.70;99.90;;;;;;5075385;28;20029;-40
2024/03/13 10:34:09;;;;;;;11.80;4.32;;;12.60;99.90;;;;;;5076237;28;20455;-38
2024/03/13 10:36:35;;;;;;;15.35;4.35;;;12.60;99.90;;;;;;5075510;28;20384;-39
2024/03/13 10:39:01;;;;;;;17.92;5.13;;;12.60;99.90;;;;;;5074665;28;20025;-39
2024/03/13 10:41:30;;;;;;;12.98;4.03;;;12.50;99.90;;;;;;5075202;28;20021;-38
2024/03/13 10:43:56;;;;;;;19.30;4.85;;;12.50;99.90;;;;;;5074799;28;20050;-37
2024/03/13 10:46:23;;;;;;;8.93;3.38;;;12.40;99.90;;;;;;5074852;28;20066;-39
2024/03/13 10:48:49;;;;;;;15.02;3.33;;;12.40;99.90;;;;;;5073561;28;20028;-42
2024/03/13 10:51:14;;;;;;;6.32;3.35;;;12.40;99.90;;;;;;5074631;28;20073;-43
2024/03/13 10:53:42;;;;;;;11.85;3.67;;;12.50;99.90;;;;;;5074728;28;20370;-38
2024/03/13 10:56:15;;;;;;;7.07;2.92;;;12.50;99.90;;;;;;5065682;28;20028;-38
2024/03/13 10:58:46;;;;;;;20.75;3.72;;;12.60;99.90;;;;;;5065498;28;20517;-38
2024/03/13 11:01:16;;;;;;;7.35;2.72;;;12.60;99.90;;;;;;5054881;28;20548;-38
2024/03/13 11:03:45;;;;;;;8.82;2.88;;;12.60;99.90;;;;;;5053812;28;20033;-39
2024/03/13 11:06:14;;;;;;;11.25;2.33;;;12.70;99.90;;;;;;5072801;28;20035;-38
2024/03/13 11:08:41;;;;;;;16.50;3.15;;;12.80;99.90;;;;;;5074497;28;20024;-42
2024/03/13 11:11:12;;;;;;;14.27;2.88;;;12.80;99.90;;;;;;5074003;28;20044;-38
2024/03/13 11:13:42;;;;;;;5.50;2.10;;;12.80;99.90;;;;;;5074672;28;20393;-37
2024/03/13 11:16:09;;;;;;;7.60;1.77;;;12.80;99.90;;;;;;5073453;28;20032;-37
2024/03/13 11:18:42;;;;;;;10.63;2.80;;;12.90;99.90;;;;;;5074259;28;20469;-41
2024/03/13 11:21:12;;;;;;;4.30;2.22;;;12.80;99.90;;;;;;5074816;28;20029;-37
2024/03/13 11:23:47;;;;;;;8.27;1.88;;;12.80;99.90;;;;;;5067775;28;20028;-37
2024/03/13 11:26:15;;;;;;;7.97;2.00;;;12.80;99.90;;;;;;5053065;28;20025;-37
2024/03/13 11:28:44;;;;;;;10.48;1.60;;;12.80;99.90;;;;;;5062375;28;20568;-37
2024/03/13 11:31:11;;;;;;;8.63;1.83;;;12.80;99.90;;;;;;5071721;28;20127;-37
2024/03/13 11:33:37;;;;;;;16.48;2.25;;;12.80;99.90;;;;;;5073763;28;20439;-37
2024/03/13 11:36:03;;;;;;;7.32;1.65;;;12.90;99.90;;;;;;5074281;28;20052;-37
2024/03/13 11:38:29;;;;;;;6.07;1.65;;;13.00;99.90;;;;;;5072362;28;20031;-37
2024/03/13 11:40:56;;;;;;;2.75;1.85;;;13.00;99.90;;;;;;5074046;28;20024;-37
2024/03/13 11:43:23;;;;;;;5.95;2.22;;;13.00;99.90;;;;;;5074295;28;20041;-39
2024/03/13 11:45:49;;;;;;;13.10;2.30;;;13.00;99.90;;;;;;5073795;28;20028;-39
2024/03/13 11:48:17;;;;;;;6.03;2.40;;;12.90;99.90;;;;;;5069123;28;20489;-37
2024/03/13 11:51:01;;;;;;;;;;;12.90;99.90;;;;;;5054201;28;20036;-38
2024/03/13 11:53:33;;;;;;;5.47;1.52;;;13.00;99.90;;;;;;5055119;28;19909;-38
2024/03/13 11:56:04;;;;;;;2.22;1.20;;;13.00;99.90;;;;;;5073581;28;20501;-38
2024/03/13 11:58:33;;;;;;;7.03;1.50;;;13.00;99.90;;;;;;5069797;28;20476;-38
2024/03/13 12:00:59;;;;;;;9.80;1.55;;;13.10;99.90;;;;;;5073222;28;20111;-64
2024/03/13 12:03:43;;;;;;;4.53;1.88;;;13.00;99.90;;;;;;5073111;28;20063;-40
2024/03/13 12:06:23;;;;;;;5.30;1.42;;;13.00;99.90;;;;;;5073585;28;20028;-38
2024/03/13 12:08:56;;;;;;;5.38;1.67;;;13.00;99.90;;;;;;5072811;28;20108;-37
2024/03/13 12:11:22;;;;;;;4.07;1.75;;;12.90;99.90;;;;;;5073221;28;20045;-41
2024/03/13 12:13:48;;;;;;;5.43;2.20;;;12.90;99.90;;;;;;5073597;28;20025;-56
2024/03/13 12:16:20;;;;;;;6.03;1.95;;;12.90;99.90;;;;;;5057902;28;20017;-37
2024/03/13 12:18:54;;;;;;;4.38;1.98;;;12.90;99.90;;;;;;5073040;28;20070;-38
2024/03/13 12:21:23;;;;;;;2.40;1.60;;;12.90;99.90;;;;;;5063593;28;20111;-39
2024/03/13 12:23:49;;;;;;;6.85;1.90;;;12.90;99.90;;;;;;5062267;28;20059;-39
2024/03/13 12:26:15;;;;;;;4.15;1.63;;;12.90;99.90;;;;;;5073176;28;20055;-39
2024/03/13 12:28:41;;;;;;;7.70;1.80;;;12.80;99.90;;;;;;5073303;28;20055;-37
2024/03/13 12:31:07;;;;;;;7.97;2.00;;;12.80;99.90;;;;;;5073000;28;20032;-36
2024/03/13 12:33:36;;;;;;;8.90;3.03;;;12.80;99.90;;;;;;5073058;28;20035;-41
2024/03/13 12:36:03;;;;;;;6.03;1.20;;;12.90;99.90;;;;;;5073006;28;20439;-39
2024/03/13 12:38:37;;;;;;;8.75;1.70;;;13.00;99.90;;;;;;5071949;28;20073;-38
2024/03/13 12:41:05;;;;;;;4.45;1.60;;;13.00;99.90;;;;;;5071378;28;20043;-37
2024/03/13 12:43:31;;;;;;;10.15;1.90;;;13.00;99.90;;;;;;5072857;28;20032;-38
2024/03/13 12:46:02;;;;;;;6.18;1.98;;;12.90;99.90;;;;;;5071296;28;20020;-46
2024/03/13 12:48:31;;;;;;;7.95;1.42;;;12.80;99.90;;;;;;5057352;28;20474;-38
2024/03/13 12:50:58;;;;;;;13.20;1.50;;;12.80;99.90;;;;;;5052839;28;20394;-38
2024/03/13 12:53:29;;;;;;;3.88;1.52;;;12.80;99.90;;;;;;5059439;28;20635;-40
2024/03/13 12:55:55;;;;;;;5.00;1.23;;;12.80;99.90;;;;;;5072408;28;20024;-37
2024/03/13 12:58:22;;;;;;;3.97;1.08;;;12.70;99.90;;;;;;5071221;28;20012;-39
2024/03/13 13:00:48;;;;;;;4.40;1.42;;;12.70;99.90;;;;;;5072563;28;20121;-40